Flight Track Log - Related Links

Times and Time Zones

All times are in EDT time to prevent confusion due to time zone crossing. See the UAL4336 flight status page for this flight to view local times or setup timezone preferences in your user account.

Time Position Orientation Groundspeed Altitude Reporting Facility
EDT Latitude Longitude Course Direction KTS MPH feet Rate Location/Type
Thu 10:20:43 AM 29.9772 -95.3056 90° East 153 176 800  Level Houston Center
Thu 10:22:00 AM 29.9697 -95.2256 96° East 202 232 3,500 2,250 Climbing Houston Center
Thu 10:22:51 AM 29.9686 -95.1450 91° East 283 326 5,600 2,492 Climbing Houston Center
Thu 10:23:58 AM 29.9733 -95.0383 87° East 309 356 8,400 2,361 Climbing Houston Center
Thu 10:24:00 AM 29.9834 -94.8732 90° East  Level FlightAware Approximate
Thu 10:24:53 AM 29.9753 -94.9486 89° East 306 352 10,400  Level Houston Center
Thu 10:25:00 AM 29.9834 -94.7581 90° East  Level FlightAware Approximate
Thu 10:26:00 AM 29.9833 -94.6431 90° East  Level FlightAware Approximate
Thu 10:26:08 AM 29.9803 -94.8292 87° East 343 395 11,500  Level Houston Center
Thu 10:27:10 AM 29.9839 -94.7078 88° East 373 429 12,900 1,500 Climbing Houston Center
Thu 10:28:12 AM 29.9894 -94.5581 88° East 387 445 14,600 1,452 Climbing Houston Center
Thu 10:29:14 AM 29.9925 -94.4308 88° East 393 452 15,900 1,161 Climbing Houston Center
Thu 10:30:16 AM 29.9967 -94.2983 88° East 408 470 17,000 581 Climbing Houston Center
Thu 10:31:18 AM 30.0131 -94.1583 82° East 435 501 17,100  Climbing Houston Center
Thu 10:32:21 AM 30.0300 -94.0172 82° East 443 510 17,000 -48 Descending Houston Center
Thu 10:33:23 AM 30.0472 -93.8750 82° East 447 514 17,000  Level Houston Center
Thu 10:34:25 AM 30.0675 -93.7042 82° East 448 516 17,000  Level Houston Center
Thu 10:35:27 AM 30.0853 -93.5619 82° East 448 516 17,000  Level Houston Center
Thu 10:36:30 AM 30.1056 -93.4100 81° East 441 507 17,000  Level Houston Center
Thu 10:37:31 AM 30.1219 -93.2672 82° East 448 516 17,000  Level Houston Center
Thu 10:38:33 AM 30.1394 -93.1264 82° East 447 514 17,000  Level Houston Center
Thu 10:39:35 AM 30.1644 -92.9850 78° East 449 517 17,000  Level Houston Center
Thu 10:40:37 AM 30.1917 -92.8456 77° East 449 517 17,000  Level Houston Center
Thu 10:41:39 AM 30.2244 -92.6764 77° East 451 519 17,000  Level Houston Center
Thu 10:42:42 AM 30.2531 -92.5358 77° East 454 522 17,000  Level Houston Center
Thu 10:43:44 AM 30.2786 -92.3958 78° East 448 516 17,000  Level Houston Center
Thu 10:44:46 AM 30.3056 -92.2553 77° East 450 518 17,000 -242 Level Houston Center
Thu 10:45:48 AM 30.3325 -92.1164 77° East 446 513 16,500 -1,258 Descending Houston Center
Thu 10:46:50 AM 30.3625 -91.9550 78° East 429 494 14,400 -1,984 Descending Houston Center
Thu 10:47:52 AM 30.3875 -91.8275 77° East 412 474 12,400 -1,694 Descending Houston Center
Thu 10:48:54 AM 30.4086 -91.7161 78° East 402 463 10,900 -1,355 Descending Houston Center
Thu 10:49:56 AM 30.4533 -91.5983 66° East 341 392 9,600 -1,597 Descending Houston Center
Thu 10:50:58 AM 30.5236 -91.5753 16° North 305 351 7,600 -1,839 Descending Houston Center
Thu 10:52:00 AM 30.5886 -91.5139 39° Northeast 303 349 5,800 -1,742 Descending Houston Center
Thu 10:53:02 AM 30.6250 -91.4203 66° East 281 323 4,000 -1,248 Descending Houston Center
Thu 10:54:05 AM 30.6444 -91.3369 75° East 266 306 3,200 -762 Descending Houston Center

Login

Don't have an account? Register now (free) for customized features, flight alerts, and more!